Time;durP1;ratioP1;P1;durP2;ratioP2;P2;SDS_P1;SDS_P2;PMS_P1;PMS_P2;Temp;Humidity;BMP_temperature;BMP_pressure;BME280_temperature;BME280_humidity;BME280_pressure;Samples;Min_cycle;Max_cycle;Signal;HPM_P1;HPM_P2
2023/10/05 00:02:29;;;;;;;0.10;0.00;;;;;;;18.94;100.00;102193.78;10459488;28;20468;-76
2023/10/05 00:07:32;;;;;;;0.17;0.17;;;;;;;18.94;100.00;102192.06;10458295;28;20067;-77
2023/10/05 00:12:34;;;;;;;0.30;0.30;;;;;;;18.92;100.00;102196.41;10458429;28;20116;-76
2023/10/05 00:17:39;;;;;;;0.13;0.13;;;;;;;18.86;100.00;102199.75;10459153;28;20048;-76
2023/10/05 00:22:43;;;;;;;6.50;0.63;;;;;;;19.01;100.00;102196.50;10457885;28;20044;-77
2023/10/05 00:27:45;;;;;;;0.10;0.00;;;;;;;18.81;100.00;102192.72;10457532;28;20057;-76
2023/10/05 00:32:48;;;;;;;0.63;0.47;;;;;;;18.62;100.00;102192.50;10457357;28;20490;-77
2023/10/05 00:37:51;;;;;;;0.00;0.00;;;;;;;19.05;100.00;102196.53;10440848;28;20143;-76
2023/10/05 00:42:53;;;;;;;2.17;0.22;;;;;;;18.93;100.00;102192.94;10457070;28;20087;-76
2023/10/05 00:48:01;;;;;;;0.00;0.00;;;;;;;19.03;100.00;102192.16;10440193;28;20053;-76
2023/10/05 00:53:07;;;;;;;0.52;0.40;;;;;;;18.96;100.00;102192.09;10456602;28;20068;-77
2023/10/05 00:58:14;;;;;;;0.80;0.47;;;;;;;18.93;100.00;102187.72;10456346;28;20041;-77
2023/10/05 01:03:23;;;;;;;0.10;0.10;;;;;;;19.30;100.00;102198.56;10439520;28;20045;-76
2023/10/05 01:08:25;;;;;;;0.00;0.00;;;;;;;19.25;100.00;102188.91;10454855;28;20045;-76
2023/10/05 01:13:31;;;;;;;0.38;0.30;;;;;;;19.21;100.00;102188.00;10455885;28;20053;-76
2023/10/05 01:18:33;;;;;;;4.65;0.57;;;;;;;19.28;100.00;102200.28;10439370;28;20057;-77
2023/10/05 01:23:38;;;;;;;1.08;0.30;;;;;;;19.16;100.00;102192.31;10414042;28;20401;-77
2023/10/05 01:28:41;;;;;;;0.60;0.30;;;;;;;19.24;100.00;102188.06;10430871;28;20479;-77
2023/10/05 01:33:46;;;;;;;0.20;0.10;;;;;;;19.02;100.00;102187.78;10455316;28;20435;-76
2023/10/05 01:38:48;;;;;;;0.00;0.00;;;;;;;19.39;100.00;102191.66;10455340;28;20052;-76
2023/10/05 01:43:51;;;;;;;0.00;0.00;;;;;;;19.36;100.00;102202.09;10455342;28;20045;-77
2023/10/05 01:48:55;;;;;;;0.20;0.13;;;;;;;19.47;100.00;102190.88;10438630;28;20072;-77
2023/10/05 01:54:16;;;;;;;1.42;0.63;;;;;;;19.29;100.00;102186.34;10455109;28;20080;-77
2023/10/05 01:59:21;;;;;;;;;;;;;;;19.11;100.00;102186.13;10439086;28;20059;-77
2023/10/05 02:04:22;;;;;;;0.10;0.10;;;;;;;19.27;100.00;102182.84;10438431;28;19927;-77
2023/10/05 02:09:24;;;;;;;0.40;0.40;;;;;;;18.56;100.00;102176.78;10438132;28;20514;-77
2023/10/05 02:14:26;;;;;;;0.20;0.00;;;;;;;18.76;100.00;102171.81;10454663;28;20045;-76
2023/10/05 02:19:27;;;;;;;0.17;0.17;;;;;;;18.79;100.00;102173.59;10455039;28;20048;-77
2023/10/05 02:24:30;;;;;;;0.20;0.10;;;;;;;18.51;100.00;102162.78;10462333;28;20044;-77
2023/10/05 02:29:32;;;;;;;0.40;0.22;;;;;;;18.59;100.00;102161.13;10437873;28;20100;-77
2023/10/05 02:34:59;;;;;;;0.00;0.00;;;;;;;18.94;100.00;102168.56;10437528;28;20046;-76
2023/10/05 02:40:07;;;;;;;0.30;0.30;;;;;;;18.61;100.00;102149.00;10420748;28;20455;-76
2023/10/05 02:45:11;;;;;;;1.55;0.52;;;;;;;18.72;100.00;102156.94;10422831;28;20033;-76
2023/10/05 02:50:14;;;;;;;0.00;0.00;;;;;;;18.74;100.00;102151.75;10461398;28;20053;-76
2023/10/05 02:55:16;;;;;;;0.00;0.00;;;;;;;18.94;100.00;102147.69;10461504;28;20408;-76
2023/10/05 03:00:20;;;;;;;1.05;0.55;;;;;;;18.59;100.00;102150.69;10461322;28;20045;-76
2023/10/05 03:05:22;;;;;;;0.00;0.00;;;;;;;18.82;100.00;102152.72;10444576;28;20045;-76
2023/10/05 03:10:23;;;;;;;0.05;0.03;;;;;;;18.75;100.00;102150.88;10461095;28;20053;-77
2023/10/05 03:15:27;;;;;;;3.00;1.35;;;;;;;18.52;100.00;102159.31;10460953;28;20037;-76
2023/10/05 03:20:31;;;;;;;0.05;0.05;;;;;;;18.06;100.00;102144.78;10460464;28;20071;-76
2023/10/05 03:25:33;;;;;;;0.30;0.22;;;;;;;18.25;100.00;102145.06;10444084;28;20422;-76
2023/10/05 03:30:35;;;;;;;0.00;0.00;;;;;;;17.93;100.00;102142.81;10443326;28;20049;-77
2023/10/05 03:35:45;;;;;;;0.45;0.43;;;;;;;17.50;100.00;102149.94;10459579;28;20041;-77
2023/10/05 03:40:47;;;;;;;0.10;0.10;;;;;;;18.02;100.00;102147.34;10459900;28;20044;-77
2023/10/05 03:45:49;;;;;;;0.30;0.13;;;;;;;17.53;100.00;102153.47;10459659;28;20087;-77
2023/10/05 03:50:51;;;;;;;0.00;0.00;;;;;;;17.55;100.00;102145.69;10459106;28;20040;-76
2023/10/05 03:55:53;;;;;;;0.20;0.20;;;;;;;17.69;100.00;102145.91;10429236;28;20103;-77
2023/10/05 04:00:58;;;;;;;0.63;0.28;;;;;;;17.61;100.00;102151.00;10437006;28;20099;-76
2023/10/05 04:06:00;;;;;;;0.28;0.20;;;;;;;17.68;100.00;102152.88;10459466;28;20041;-77
2023/10/05 04:11:04;;;;;;;0.38;0.22;;;;;;;17.81;100.00;102166.09;10458520;28;20045;-76
2023/10/05 04:16:09;;;;;;;0.00;0.00;;;;;;;17.89;100.00;102161.88;10458349;28;20087;-77
2023/10/05 04:21:11;;;;;;;0.32;0.32;;;;;;;17.73;100.00;102161.63;10458239;28;20048;-77
2023/10/05 04:26:13;;;;;;;1.20;0.90;;;;;;;18.28;100.00;102163.34;10441258;28;20389;-77
2023/10/05 04:31:15;;;;;;;0.20;0.20;;;;;;;17.89;100.00;102160.13;10457728;28;20060;-77
2023/10/05 04:36:22;;;;;;;0.00;0.00;;;;;;;17.86;100.00;102172.25;10457653;28;20044;-76
2023/10/05 04:41:35;;;;;;;2.28;0.20;;;;;;;17.89;100.00;102161.88;10457493;28;20139;-76
2023/10/05 04:46:36;;;;;;;0.30;0.30;;;;;;;17.81;100.00;102153.06;10457147;28;20044;-77
2023/10/05 04:51:40;;;;;;;0.38;0.38;;;;;;;17.71;100.00;102163.31;10416353;28;20049;-76
2023/10/05 05:07:00;;;;;;;1.83;0.93;;;;;;;17.70;100.00;102169.38;10455719;28;20059;-76
2023/10/05 05:12:05;;;;;;;0.52;0.52;;;;;;;17.96;100.00;102163.75;10439129;28;20037;-76
2023/10/05 05:17:10;;;;;;;0.68;0.32;;;;;;;18.06;100.00;102175.22;10456092;28;20511;-76
2023/10/05 05:22:13;;;;;;;0.22;0.13;;;;;;;17.28;100.00;102173.00;10457199;28;20055;-77
2023/10/05 05:32:22;;;;;;;0.03;0.03;;;;;;;17.44;100.00;102164.63;10455543;28;20049;-76
2023/10/05 05:37:29;;;;;;;1.13;0.73;;;;;;;17.65;100.00;102172.78;10455571;28;20061;-76
2023/10/05 05:42:32;;;;;;;0.95;0.17;;;;;;;17.67;100.00;102176.28;10430986;28;20067;-77
2023/10/05 05:47:35;;;;;;;0.93;0.20;;;;;;;17.28;100.00;102189.50;10452664;28;20413;-77
2023/10/05 05:52:37;;;;;;;0.17;0.17;;;;;;;17.74;100.00;102189.47;10456861;28;20044;-77
2023/10/05 05:57:40;;;;;;;1.02;0.22;;;;;;;17.60;100.00;102197.03;10466850;28;20052;-76
2023/10/05 06:02:43;;;;;;;3.40;0.90;;;;;;;17.70;100.00;102198.06;10452090;28;20045;-76
2023/10/05 06:07:45;;;;;;;0.10;0.10;;;;;;;17.73;100.00;102203.34;10468622;28;20049;-77
2023/10/05 06:12:50;;;;;;;0.30;0.20;;;;;;;17.59;100.00;102199.63;10468315;28;20119;-78
2023/10/05 06:17:52;;;;;;;0.00;0.00;;;;;;;17.64;100.00;102208.38;10468745;28;20041;-77
2023/10/05 06:22:53;;;;;;;0.00;0.00;;;;;;;17.80;100.00;102214.72;10468731;28;20211;-77
2023/10/05 06:27:55;;;;;;;0.20;0.20;;;;;;;17.73;100.00;102218.97;10469412;28;20059;-78
2023/10/05 06:32:58;;;;;;;0.05;0.05;;;;;;;17.69;100.00;102224.97;10468718;28;20051;-77
2023/10/05 06:38:01;;;;;;;0.30;0.28;;;;;;;17.73;100.00;102212.88;10468805;28;20120;-77
2023/10/05 06:43:05;;;;;;;0.00;0.00;;;;;;;18.02;100.00;102209.94;10468735;28;20044;-77
2023/10/05 06:48:07;;;;;;;0.03;0.00;;;;;;;18.09;100.00;102217.00;10468576;28;20045;-77
2023/10/05 06:53:11;;;;;;;6.10;0.90;;;;;;;17.69;100.00;102226.72;10427150;28;20243;-77
2023/10/05 06:58:13;;;;;;;0.30;0.30;;;;;;;17.73;100.00;102234.63;10454530;28;20052;-77
2023/10/05 07:03:15;;;;;;;3.72;0.47;;;;;;;17.90;100.00;102236.63;10426790;28;20056;-77
2023/10/05 07:08:16;;;;;;;0.90;0.65;;;;;;;18.26;100.00;102245.94;10461182;28;20041;-76
2023/10/05 07:13:21;;;;;;;0.57;0.22;;;;;;;18.33;100.00;102250.38;10461804;28;20047;-77
2023/10/05 07:18:24;;;;;;;0.20;0.10;;;;;;;17.97;100.00;102248.97;10461577;28;20076;-77
2023/10/05 07:23:29;;;;;;;0.40;0.40;;;;;;;18.00;100.00;102254.22;10444532;28;20049;-77
2023/10/05 07:28:32;;;;;;;0.20;0.20;;;;;;;18.37;100.00;102248.72;10461341;28;20446;-77
2023/10/05 07:33:35;;;;;;;0.98;0.30;;;;;;;18.65;100.00;102270.84;10461759;28;20060;-77
2023/10/05 07:38:38;;;;;;;0.03;0.03;;;;;;;19.35;100.00;102271.78;10460050;28;20126;-78
2023/10/05 07:43:40;;;;;;;0.05;0.03;;;;;;;19.23;100.00;102280.34;10459637;28;20045;-76
2023/10/05 07:48:48;;;;;;;0.10;0.10;;;;;;;19.28;100.00;102294.31;10460892;28;20427;-76
2023/10/05 07:53:51;;;;;;;0.30;0.30;;;;;;;19.89;100.00;102303.72;10459444;28;20041;-77
2023/10/05 07:58:54;;;;;;;0.40;0.20;;;;;;;18.96;100.00;102297.41;10418298;28;20079;-77
2023/10/05 08:03:55;;;;;;;0.10;0.10;;;;;;;19.78;100.00;102297.47;10401445;28;20049;-77
2023/10/05 08:08:57;;;;;;;0.32;0.20;;;;;;;20.18;100.00;102313.56;10417635;28;20053;-76
2023/10/05 08:13:59;;;;;;;0.25;0.25;;;;;;;20.53;100.00;102318.19;10420391;28;20048;-77
2023/10/05 08:19:00;;;;;;;0.13;0.10;;;;;;;20.69;100.00;102313.03;10458015;28;20446;-77
2023/10/05 08:24:02;;;;;;;0.65;0.20;;;;;;;20.37;100.00;102316.31;10458580;28;20507;-76
2023/10/05 08:29:06;;;;;;;1.00;0.52;;;;;;;20.26;100.00;102313.59;10460391;28;20044;-78
2023/10/05 08:34:08;;;;;;;0.38;0.20;;;;;;;20.28;100.00;102318.03;10442567;28;20045;-76
2023/10/05 08:39:13;;;;;;;0.30;0.30;;;;;;;20.53;100.00;102323.41;10442440;28;20056;-77
2023/10/05 08:44:28;;;;;;;0.50;0.40;;;;;;;20.75;100.00;102323.59;10457730;28;20195;-77
2023/10/05 08:49:33;;;;;;;0.00;0.00;;;;;;;21.17;100.00;102321.19;10458030;28;20476;-77
2023/10/05 08:54:34;;;;;;;0.10;0.10;;;;;;;21.30;100.00;102322.13;10458948;28;20056;-77
2023/10/05 08:59:45;;;;;;;0.40;0.40;;;;;;;21.17;100.00;102326.44;10457029;28;20053;-78
2023/10/05 09:04:59;;;;;;;0.90;0.90;;;;;;;21.48;100.00;102335.28;10457048;28;20048;-76
2023/10/05 09:10:05;;;;;;;0.22;0.08;;;;;;;21.46;100.00;102339.66;10456459;28;20152;-76
2023/10/05 09:20:33;;;;;;;0.20;0.00;;;;;;;21.33;100.00;102349.22;10456473;28;20504;-77
2023/10/05 09:25:39;;;;;;;0.30;0.30;;;;;;;21.37;100.00;102360.59;10440524;28;20083;-77
2023/10/05 09:31:00;;;;;;;0.30;0.25;;;;;;;21.77;100.00;102363.38;10439488;28;20395;-77
2023/10/05 09:36:19;;;;;;;0.35;0.30;;;;;;;21.92;100.00;102367.78;10456695;28;20439;-77
2023/10/05 09:41:23;;;;;;;0.10;0.10;;;;;;;22.38;100.00;102369.53;10457416;28;20129;-76
2023/10/05 09:46:28;;;;;;;0.45;0.32;;;;;;;21.86;100.00;102381.75;10457583;28;20124;-76
2023/10/05 09:51:34;;;;;;;0.20;0.05;;;;;;;21.70;100.00;102391.34;10430197;28;20152;-77
2023/10/05 09:56:41;;;;;;;0.22;0.17;;;;;;;21.98;100.00;102391.41;10431011;28;20120;-78
2023/10/05 10:01:49;;;;;;;0.00;0.00;;;;;;;21.86;100.00;102394.84;10433092;28;20055;-77
2023/10/05 10:06:53;;;;;;;0.55;0.55;;;;;;;21.75;100.00;102382.59;10439261;28;20045;-78
2023/10/05 10:11:59;;;;;;;0.05;0.05;;;;;;;21.56;100.00;102375.50;10439271;28;20049;-79
2023/10/05 10:17:08;;;;;;;4.30;0.38;;;;;;;21.86;100.00;102387.00;10456643;28;20044;-77
2023/10/05 10:22:12;;;;;;;0.00;0.00;;;;;;;22.31;100.00;102378.31;10454490;28;20119;-76
2023/10/05 10:27:26;;;;;;;0.30;0.30;;;;;;;21.63;100.00;102378.22;10455483;28;20045;-76
2023/10/05 10:32:31;;;;;;;0.52;0.47;;;;;;;21.72;100.00;102375.59;10439146;28;20040;-77
2023/10/05 10:37:44;;;;;;;0.25;0.25;;;;;;;21.95;100.00;102372.16;10430357;28;20563;-78
2023/10/05 10:48:12;;;;;;;0.00;0.00;;;;;;;22.39;100.00;102381.84;10462805;28;20045;-77
2023/10/05 10:53:18;;;;;;;0.10;0.10;;;;;;;22.14;100.00;102376.56;10463069;28;20087;-78
2023/10/05 10:58:25;;;;;;;0.50;0.10;;;;;;;21.86;100.00;102386.13;10462999;28;20052;-78
2023/10/05 11:03:27;;;;;;;0.15;0.10;;;;;;;21.85;100.00;102374.78;10462914;28;20041;-78
2023/10/05 11:08:40;;;;;;;0.13;0.13;;;;;;;22.50;100.00;102377.47;10462673;28;20502;-77
2023/10/05 11:13:43;;;;;;;0.10;0.00;;;;;;;22.48;100.00;102376.59;10462998;28;20041;-78
2023/10/05 11:18:58;;;;;;;0.10;0.10;;;;;;;22.17;100.00;102380.94;10461538;28;20399;-78
2023/10/05 11:24:06;;;;;;;0.80;0.17;;;;;;;22.19;100.00;102385.31;10461117;28;20136;-77
2023/10/05 11:29:15;;;;;;;5.50;1.48;;;;;;;21.91;100.00;102378.28;10461941;28;20476;-78
2023/10/05 11:34:19;;;;;;;3.00;0.53;;;;;;;22.01;100.00;102378.28;10463303;28;20049;-77
2023/10/05 11:39:50;;;;;;;0.10;0.00;;;;;;;22.61;100.00;102368.69;10461811;28;20041;-78
2023/10/05 11:44:59;;;;;;;0.00;0.00;;;;;;;23.30;100.00;102357.16;10443660;28;20045;-77
2023/10/05 11:50:08;;;;;;;0.30;0.17;;;;;;;22.63;100.00;102366.94;10459755;28;20051;-78
2023/10/05 11:55:11;;;;;;;0.20;0.15;;;;;;;22.97;100.00;102359.00;10442212;28;20048;-77
2023/10/05 12:00:16;;;;;;;0.73;0.30;;;;;;;23.75;100.00;102360.44;10442750;28;20076;-76
2023/10/05 12:05:17;;;;;;;0.22;0.22;;;;;;;23.02;100.00;102362.50;10442638;28;20407;-77
2023/10/05 12:10:19;;;;;;;0.08;0.08;;;;;;;22.99;100.00;102373.00;10442418;28;20057;-77
2023/10/05 12:15:22;;;;;;;0.10;0.10;;;;;;;22.58;100.00;102373.97;10442978;28;20044;-78
2023/10/05 12:20:24;;;;;;;0.15;0.15;;;;;;;22.88;100.00;102374.78;10458783;28;20052;-78
2023/10/05 12:25:27;;;;;;;0.10;0.10;;;;;;;23.21;100.00;102372.97;10458833;28;20080;-77
2023/10/05 12:30:31;;;;;;;0.03;0.03;;;;;;;23.10;100.00;102376.50;10458539;28;20055;-78
2023/10/05 12:35:32;;;;;;;0.10;0.10;;;;;;;23.24;100.00;102380.84;10458667;28;20067;-77
2023/10/05 12:40:34;;;;;;;0.70;0.20;;;;;;;23.13;100.00;102376.47;10458175;28;20515;-78
2023/10/05 12:45:36;;;;;;;0.47;0.10;;;;;;;23.06;100.00;102373.88;10441701;28;20148;-77
2023/10/05 12:50:39;;;;;;;0.00;0.00;;;;;;;23.70;100.00;102382.38;10457422;28;20045;-77
2023/10/05 12:55:41;;;;;;;0.38;0.20;;;;;;;23.52;100.00;102379.00;10457305;28;20392;-77
2023/10/05 13:00:44;;;;;;;0.55;0.40;;;;;;;24.59;100.00;102374.72;10457549;28;20051;-76
2023/10/05 13:05:49;;;;;;;0.05;0.05;;;;;;;23.62;100.00;102379.81;10424219;28;20488;-77
2023/10/05 13:10:51;;;;;;;0.20;0.20;;;;;;;23.70;100.00;102378.00;10415286;28;20073;-77
2023/10/05 13:15:53;;;;;;;0.35;0.10;;;;;;;23.42;100.00;102375.50;10456841;28;20064;-78
2023/10/05 13:20:55;;;;;;;5.28;0.82;;;;;;;24.09;100.00;102385.69;10440166;28;20049;-78
2023/10/05 13:25:56;;;;;;;0.22;0.10;;;;;;;25.19;100.00;102374.13;10455804;28;20063;-76
2023/10/05 13:30:59;;;;;;;0.00;0.00;;;;;;;23.55;100.00;102372.84;10456200;28;20074;-76
2023/10/05 13:36:14;;;;;;;1.55;0.13;;;;;;;24.08;100.00;102378.66;10456968;28;20079;-76
2023/10/05 13:41:18;;;;;;;0.40;0.40;;;;;;;23.70;100.00;102382.38;10454832;28;20555;-77
2023/10/05 13:46:21;;;;;;;0.00;0.00;;;;;;;23.88;100.00;102379.66;10455466;28;20095;-76
2023/10/05 13:51:23;;;;;;;0.00;0.00;;;;;;;23.89;100.00;102372.63;10455146;28;20049;-77
2023/10/05 13:56:28;;;;;;;0.17;0.10;;;;;;;23.95;100.00;102367.34;10454816;28;20128;-77
2023/10/05 14:01:43;;;;;;;0.40;0.22;;;;;;;23.63;100.00;102376.31;10454888;28;20393;-79
2023/10/05 14:06:45;;;;;;;0.00;0.00;;;;;;;23.62;100.00;102377.19;10430626;28;20037;-78
2023/10/05 14:11:47;;;;;;;0.10;0.00;;;;;;;24.23;100.00;102364.53;10422387;28;20045;-77
2023/10/05 14:16:50;;;;;;;0.00;0.00;;;;;;;23.61;100.00;102372.78;10457628;28;20049;-77
2023/10/05 14:21:52;;;;;;;0.20;0.17;;;;;;;23.15;100.00;102371.22;10462766;28;20060;-78
2023/10/05 14:26:57;;;;;;;0.10;0.10;;;;;;;22.94;100.00;102374.78;10462808;28;20099;-78
2023/10/05 14:32:04;;;;;;;0.28;0.10;;;;;;;22.89;100.00;102376.56;10462945;28;20072;-78
2023/10/05 14:37:07;;;;;;;1.00;0.75;;;;;;;23.05;100.00;102372.13;10462126;28;20525;-78
2023/10/05 14:42:09;;;;;;;0.10;0.08;;;;;;;23.55;100.00;102357.06;10462456;28;20079;-78
2023/10/05 14:47:13;;;;;;;0.40;0.40;;;;;;;23.12;100.00;102358.94;10445841;28;20053;-77
2023/10/05 14:52:17;;;;;;;0.13;0.13;;;;;;;23.12;100.00;102355.44;10462106;28;20092;-78
2023/10/05 14:57:18;;;;;;;1.67;0.52;;;;;;;23.60;100.00;102363.16;10462151;28;20040;-77
2023/10/05 15:02:21;;;;;;;0.43;0.40;;;;;;;24.40;100.00;102359.09;10461550;28;20044;-78
2023/10/05 15:07:22;;;;;;;0.35;0.17;;;;;;;23.26;100.00;102360.69;10462613;28;20052;-78
2023/10/05 15:12:25;;;;;;;0.25;0.25;;;;;;;23.17;100.00;102358.06;10444968;28;20451;-78
2023/10/05 15:17:28;;;;;;;0.00;0.00;;;;;;;23.71;100.00;102363.97;10461372;28;20076;-78
2023/10/05 15:22:30;;;;;;;0.32;0.32;;;;;;;23.77;100.00;102363.03;10444120;28;20073;-76
2023/10/05 15:27:33;;;;;;;0.05;0.00;;;;;;;23.75;100.00;102376.22;10459231;28;20079;-78
2023/10/05 15:32:36;;;;;;;0.40;0.40;;;;;;;23.51;100.00;102373.72;10460383;28;20558;-78
2023/10/05 15:37:43;;;;;;;0.15;0.00;;;;;;;23.06;100.00;102369.47;10434304;28;20140;-77
2023/10/05 15:42:47;;;;;;;0.20;0.15;;;;;;;22.93;100.00;102370.41;10451558;28;20045;-76
2023/10/05 15:47:51;;;;;;;0.60;0.20;;;;;;;22.88;100.00;102369.53;10459580;28;20140;-77
2023/10/05 15:52:59;;;;;;;0.00;0.00;;;;;;;23.20;100.00;102365.94;10443015;28;20094;-77
2023/10/05 15:58:06;;;;;;;0.33;0.20;;;;;;;23.45;100.00;102359.72;10459606;28;20041;-77
2023/10/05 16:03:10;;;;;;;0.05;0.00;;;;;;;23.20;100.00;102369.47;10459286;28;20397;-76
2023/10/05 16:08:17;;;;;;;0.00;0.00;;;;;;;22.86;100.00;102366.91;10458879;28;20086;-77
2023/10/05 16:13:19;;;;;;;0.03;0.03;;;;;;;22.84;100.00;102367.78;10442399;28;20060;-76
2023/10/05 16:18:20;;;;;;;0.15;0.10;;;;;;;23.09;100.00;102368.59;10450224;28;20145;-77
2023/10/05 16:23:22;;;;;;;1.17;0.40;;;;;;;22.72;100.00;102377.44;10458448;28;20550;-77
2023/10/05 16:28:24;;;;;;;0.20;0.10;;;;;;;22.23;100.00;102374.81;10441913;28;20044;-77
2023/10/05 16:33:26;;;;;;;0.00;0.00;;;;;;;22.78;100.00;102372.19;10458401;28;20407;-77
2023/10/05 16:38:28;;;;;;;0.10;0.00;;;;;;;22.73;100.00;102381.84;10457556;28;20041;-76
2023/10/05 16:43:31;;;;;;;0.20;0.17;;;;;;;22.02;100.00;102385.28;10457686;28;20049;-76
2023/10/05 16:48:35;;;;;;;4.40;0.40;;;;;;;22.18;100.00;102386.19;10457546;28;20076;-76
2023/10/05 16:53:37;;;;;;;0.00;0.00;;;;;;;21.93;100.00;102385.28;10457433;28;20444;-76
2023/10/05 16:58:38;;;;;;;0.20;0.08;;;;;;;21.60;100.00;102388.69;10457597;28;20041;-77
2023/10/05 17:03:41;;;;;;;0.00;0.00;;;;;;;21.60;100.00;102399.16;10456806;28;20053;-77
2023/10/05 17:08:42;;;;;;;0.25;0.08;;;;;;;21.54;100.00;102397.34;10440437;28;20114;-76
2023/10/05 17:13:44;;;;;;;0.08;0.03;;;;;;;21.14;100.00;102405.03;10456825;28;20040;-77
2023/10/05 17:18:45;;;;;;;0.00;0.00;;;;;;;20.64;100.00;102414.28;10456605;28;20049;-77
2023/10/05 17:23:47;;;;;;;0.38;0.35;;;;;;;19.75;100.00;102409.88;10456359;28;20045;-77
2023/10/05 17:28:49;;;;;;;0.40;0.17;;;;;;;20.37;100.00;102407.91;10456461;28;20451;-76
2023/10/05 17:33:51;;;;;;;0.55;0.20;;;;;;;20.12;100.00;102410.31;10456128;28;20416;-76
2023/10/05 17:38:53;;;;;;;0.10;0.10;;;;;;;20.01;100.00;102412.81;10455975;28;20056;-77
2023/10/05 17:43:54;;;;;;;0.32;0.30;;;;;;;19.94;100.00;102406.63;10455954;28;20511;-77
2023/10/05 17:48:57;;;;;;;0.05;0.00;;;;;;;20.32;100.00;102412.25;10456118;28;20411;-76
2023/10/05 17:53:59;;;;;;;0.10;0.10;;;;;;;19.92;100.00;102413.59;10454769;28;20053;-77
2023/10/05 17:59:01;;;;;;;0.22;0.22;;;;;;;19.52;100.00;102413.09;10455515;28;20106;-76
2023/10/05 18:04:05;;;;;;;0.15;0.10;;;;;;;19.68;100.00;102402.84;10455272;28;20049;-77
2023/10/05 18:09:08;;;;;;;1.13;0.17;;;;;;;20.17;100.00;102408.63;10455210;28;20055;-77
2023/10/05 18:14:12;;;;;;;1.73;0.40;;;;;;;20.08;100.00;102409.41;10455772;28;20052;-77
2023/10/05 18:19:14;;;;;;;0.08;0.08;;;;;;;20.24;100.00;102410.44;10438834;28;20053;-76
2023/10/05 18:24:17;;;;;;;0.52;0.30;;;;;;;19.69;100.00;102409.81;10456397;28;20059;-77
2023/10/05 18:29:19;;;;;;;0.10;0.10;;;;;;;19.60;100.00;102403.63;10455045;28;20056;-77
2023/10/05 18:34:21;;;;;;;3.50;1.10;;;;;;;19.47;100.00;102409.56;10455024;28;20073;-76
2023/10/05 18:39:23;;;;;;;0.52;0.30;;;;;;;20.04;100.00;102414.59;10456211;28;20052;-76
2023/10/05 18:44:24;;;;;;;0.30;0.30;;;;;;;19.68;100.00;102422.00;10454607;28;20063;-77
2023/10/05 18:49:26;;;;;;;0.10;0.10;;;;;;;19.90;100.00;102436.25;10438022;28;20059;-77
2023/10/05 18:54:28;;;;;;;0.13;0.10;;;;;;;19.79;100.00;102423.03;10454960;28;20079;-76
2023/10/05 18:59:29;;;;;;;0.43;0.30;;;;;;;19.62;100.00;102430.63;10454621;28;20064;-76
2023/10/05 19:04:32;;;;;;;0.00;0.00;;;;;;;19.15;100.00;102428.28;10459928;28;20051;-76
2023/10/05 19:09:36;;;;;;;2.78;0.15;;;;;;;19.28;100.00;102434.56;10462137;28;20044;-77
2023/10/05 19:14:38;;;;;;;0.20;0.10;;;;;;;19.40;100.00;102436.47;10461532;28;20049;-76
2023/10/05 19:19:40;;;;;;;0.88;0.50;;;;;;;19.60;100.00;102453.28;10444570;28;20057;-77
2023/10/05 19:24:42;;;;;;;0.00;0.00;;;;;;;18.93;100.00;102448.84;10461272;28;20095;-77
2023/10/05 19:29:44;;;;;;;3.20;0.35;;;;;;;18.94;100.00;102440.16;10461193;28;20071;-77
2023/10/05 19:34:45;;;;;;;0.22;0.22;;;;;;;18.84;100.00;102446.91;10461084;28;20111;-77
2023/10/05 19:39:47;;;;;;;0.28;0.20;;;;;;;18.81;100.00;102443.38;10460504;28;20056;-76
2023/10/05 19:44:49;;;;;;;0.22;0.22;;;;;;;18.77;100.00;102441.59;10452008;28;20071;-77
2023/10/05 19:49:50;;;;;;;0.08;0.08;;;;;;;18.83;100.00;102453.03;10460311;28;20098;-76
2023/10/05 19:54:52;;;;;;;0.10;0.10;;;;;;;18.70;100.00;102451.03;10460527;28;20068;-76
2023/10/05 19:59:55;;;;;;;0.22;0.20;;;;;;;18.45;100.00;102455.84;10418500;28;20447;-76
2023/10/05 20:04:57;;;;;;;1.25;0.55;;;;;;;18.84;100.00;102464.31;10419392;28;20054;-77
2023/10/05 20:09:59;;;;;;;0.38;0.35;;;;;;;18.51;100.00;102465.50;10437019;28;20063;-77
2023/10/05 20:15:01;;;;;;;0.25;0.20;;;;;;;18.84;100.00;102466.94;10428612;28;20132;-77
2023/10/05 20:20:11;;;;;;;0.85;0.20;;;;;;;18.64;100.00;102466.59;10459129;28;20121;-76
2023/10/05 20:25:13;;;;;;;0.35;0.32;;;;;;;18.50;100.00;102472.47;10459166;28;20400;-77
2023/10/05 20:30:15;;;;;;;0.13;0.10;;;;;;;18.93;100.00;102461.91;10442176;28;20048;-76
2023/10/05 20:35:17;;;;;;;0.30;0.30;;;;;;;18.74;100.00;102465.00;10458247;28;20037;-77
2023/10/05 20:40:19;;;;;;;0.43;0.17;;;;;;;18.45;100.00;102470.59;10457500;28;20550;-77
2023/10/05 20:45:21;;;;;;;0.60;0.50;;;;;;;18.69;100.00;102471.06;10457461;28;20077;-76
2023/10/05 20:50:23;;;;;;;0.35;0.28;;;;;;;18.28;100.00;102473.78;10457418;28;20037;-77
2023/10/05 20:55:31;;;;;;;0.15;0.15;;;;;;;17.94;100.00;102462.66;10458101;28;20075;-77
2023/10/05 21:00:32;;;;;;;0.90;0.40;;;;;;;17.92;100.00;102456.53;10457176;28;20144;-77
2023/10/05 21:05:35;;;;;;;0.22;0.20;;;;;;;18.29;100.00;102454.66;10456985;28;20044;-76
2023/10/05 21:10:37;;;;;;;0.68;0.30;;;;;;;18.16;100.00;102453.59;10433162;28;20045;-77
2023/10/05 21:15:39;;;;;;;0.43;0.40;;;;;;;18.60;100.00;102451.75;10398809;28;20607;-76
2023/10/05 21:20:41;;;;;;;1.95;0.95;;;;;;;18.40;100.00;102444.44;10415369;28;20057;-78
2023/10/05 21:25:49;;;;;;;0.55;0.35;;;;;;;18.84;100.00;102443.44;10419808;28;20045;-77
2023/10/05 21:30:51;;;;;;;0.40;0.38;;;;;;;18.67;100.00;102444.03;10439559;28;20053;-77
2023/10/05 21:35:53;;;;;;;0.95;0.60;;;;;;;18.74;100.00;102446.75;10455404;28;20045;-77
2023/10/05 21:40:55;;;;;;;0.15;0.15;;;;;;;18.61;100.00;102440.47;10456436;28;20041;-77
2023/10/05 21:45:57;;;;;;;0.05;0.05;;;;;;;18.04;100.00;102430.75;10438379;28;20063;-77
2023/10/05 21:51:00;;;;;;;0.52;0.40;;;;;;;18.06;100.00;102423.81;10428161;28;20454;-77
2023/10/05 21:56:03;;;;;;;14.40;0.65;;;;;;;18.08;100.00;102410.81;10455806;28;20075;-76
2023/10/05 22:01:05;;;;;;;0.20;0.20;;;;;;;18.11;100.00;102410.00;10454773;28;20404;-77
2023/10/05 22:06:07;;;;;;;0.50;0.30;;;;;;;18.37;100.00;102416.56;10454998;28;20394;-77
2023/10/05 22:11:10;;;;;;;0.68;0.52;;;;;;;18.64;100.00;102430.94;10454266;28;20052;-76
2023/10/05 22:16:13;;;;;;;4.45;0.63;;;;;;;18.13;100.00;102426.56;10453888;28;20040;-77
2023/10/05 22:21:16;;;;;;;0.28;0.25;;;;;;;18.24;100.00;102425.00;10453695;28;20053;-77
2023/10/05 22:26:18;;;;;;;0.10;0.10;;;;;;;18.11;100.00;102418.69;10453650;28;20049;-76
2023/10/05 22:31:20;;;;;;;0.40;0.22;;;;;;;17.99;100.00;102411.50;10441494;28;20044;-77
2023/10/05 22:36:22;;;;;;;0.08;0.08;;;;;;;17.70;100.00;102419.59;10454682;28;20041;-76
2023/10/05 22:41:24;;;;;;;0.20;0.15;;;;;;;17.92;100.00;102412.19;10462321;28;20086;-77
2023/10/05 22:46:26;;;;;;;0.85;0.65;;;;;;;17.62;100.00;102410.75;10445351;28;20045;-77
2023/10/05 22:51:28;;;;;;;0.63;0.13;;;;;;;17.53;100.00;102424.47;10461960;28;20116;-77
2023/10/05 22:56:30;;;;;;;0.43;0.30;;;;;;;17.74;100.00;102416.22;10445271;28;20143;-77
2023/10/05 23:01:44;;;;;;;0.55;0.38;;;;;;;17.63;100.00;102420.31;10462799;28;20068;-76
2023/10/05 23:06:46;;;;;;;0.95;0.70;;;;;;;17.01;100.00;102423.28;10461329;28;20132;-77
2023/10/05 23:11:48;;;;;;;0.38;0.20;;;;;;;17.00;100.00;102422.44;10460963;28;20041;-77
2023/10/05 23:16:50;;;;;;;0.35;0.30;;;;;;;17.17;100.00;102415.00;10462751;28;20039;-77
2023/10/05 23:21:52;;;;;;;2.25;1.00;;;;;;;17.38;100.00;102425.03;10462071;28;20048;-77
2023/10/05 23:26:55;;;;;;;0.40;0.40;;;;;;;17.56;100.00;102428.84;10461940;28;20523;-77